sensor_id;sensor_type;location;lat;lon;timestamp;P1;durP1;ratioP1;P2;durP2;ratioP2
71166;SDS011;58864;45.928;20.078;2022-08-19T00:01:45;9.13;;;3.80;;
71166;SDS011;58864;45.928;20.078;2022-08-19T00:04:12;7.00;;;3.92;;
71166;SDS011;58864;45.928;20.078;2022-08-19T00:06:39;9.18;;;3.63;;
71166;SDS011;58864;45.928;20.078;2022-08-19T00:09:05;9.73;;;3.80;;
71166;SDS011;58864;45.928;20.078;2022-08-19T00:11:31;8.70;;;3.57;;
71166;SDS011;58864;45.928;20.078;2022-08-19T00:13:55;6.38;;;3.17;;
71166;SDS011;58864;45.928;20.078;2022-08-19T00:16:20;7.17;;;3.77;;
71166;SDS011;58864;45.928;20.078;2022-08-19T00:18:45;10.30;;;3.72;;
71166;SDS011;58864;45.928;20.078;2022-08-19T00:21:09;14.80;;;3.80;;
71166;SDS011;58864;45.928;20.078;2022-08-19T00:23:34;8.77;;;3.53;;
71166;SDS011;58864;45.928;20.078;2022-08-19T00:26:00;8.45;;;3.80;;
71166;SDS011;58864;45.928;20.078;2022-08-19T00:28:24;7.50;;;3.70;;
71166;SDS011;58864;45.928;20.078;2022-08-19T00:30:49;7.93;;;3.53;;
71166;SDS011;58864;45.928;20.078;2022-08-19T00:33:15;10.30;;;3.90;;
71166;SDS011;58864;45.928;20.078;2022-08-19T00:35:40;10.80;;;3.53;;
71166;SDS011;58864;45.928;20.078;2022-08-19T00:38:04;9.67;;;3.57;;
71166;SDS011;58864;45.928;20.078;2022-08-19T00:40:32;7.35;;;3.53;;
71166;SDS011;58864;45.928;20.078;2022-08-19T00:42:56;7.28;;;3.50;;
71166;SDS011;58864;45.928;20.078;2022-08-19T00:45:22;11.03;;;3.83;;
71166;SDS011;58864;45.928;20.078;2022-08-19T00:47:47;7.60;;;3.60;;
71166;SDS011;58864;45.928;20.078;2022-08-19T00:50:13;7.90;;;3.60;;
71166;SDS011;58864;45.928;20.078;2022-08-19T00:52:41;7.82;;;3.58;;
71166;SDS011;58864;45.928;20.078;2022-08-19T00:55:09;11.35;;;3.80;;
71166;SDS011;58864;45.928;20.078;2022-08-19T00:57:37;8.07;;;3.30;;
71166;SDS011;58864;45.928;20.078;2022-08-19T01:00:05;9.20;;;3.73;;
71166;SDS011;58864;45.928;20.078;2022-08-19T01:02:33;8.95;;;3.85;;
71166;SDS011;58864;45.928;20.078;2022-08-19T01:04:59;6.75;;;3.63;;
71166;SDS011;58864;45.928;20.078;2022-08-19T01:07:27;10.73;;;3.87;;
71166;SDS011;58864;45.928;20.078;2022-08-19T01:09:54;11.18;;;3.95;;
71166;SDS011;58864;45.928;20.078;2022-08-19T01:12:19;8.17;;;3.93;;
71166;SDS011;58864;45.928;20.078;2022-08-19T01:14:45;11.43;;;3.75;;
71166;SDS011;58864;45.928;20.078;2022-08-19T01:17:10;8.85;;;3.30;;
71166;SDS011;58864;45.928;20.078;2022-08-19T01:19:36;8.48;;;3.30;;
71166;SDS011;58864;45.928;20.078;2022-08-19T01:22:06;9.13;;;3.83;;
71166;SDS011;58864;45.928;20.078;2022-08-19T01:24:38;8.88;;;4.22;;
71166;SDS011;58864;45.928;20.078;2022-08-19T01:27:04;8.73;;;3.45;;
71166;SDS011;58864;45.928;20.078;2022-08-19T01:29:29;9.18;;;3.45;;
71166;SDS011;58864;45.928;20.078;2022-08-19T01:31:53;6.90;;;3.30;;
71166;SDS011;58864;45.928;20.078;2022-08-19T01:34:18;8.30;;;3.90;;
71166;SDS011;58864;45.928;20.078;2022-08-19T01:36:44;7.88;;;4.07;;
71166;SDS011;58864;45.928;20.078;2022-08-19T01:39:12;8.43;;;3.92;;
71166;SDS011;58864;45.928;20.078;2022-08-19T01:41:38;8.43;;;3.78;;
71166;SDS011;58864;45.928;20.078;2022-08-19T01:44:04;8.93;;;3.47;;
71166;SDS011;58864;45.928;20.078;2022-08-19T01:46:30;12.88;;;3.70;;
71166;SDS011;58864;45.928;20.078;2022-08-19T01:48:55;8.00;;;3.53;;
71166;SDS011;58864;45.928;20.078;2022-08-19T01:51:19;7.35;;;3.65;;
71166;SDS011;58864;45.928;20.078;2022-08-19T01:53:46;6.90;;;3.60;;
71166;SDS011;58864;45.928;20.078;2022-08-19T01:56:12;7.65;;;3.55;;
71166;SDS011;58864;45.928;20.078;2022-08-19T01:58:38;8.17;;;4.20;;
71166;SDS011;58864;45.928;20.078;2022-08-19T02:01:05;9.90;;;3.90;;
71166;SDS011;58864;45.928;20.078;2022-08-19T02:03:30;7.40;;;3.77;;
71166;SDS011;58864;45.928;20.078;2022-08-19T02:05:55;8.50;;;3.80;;
71166;SDS011;58864;45.928;20.078;2022-08-19T02:08:21;9.45;;;4.03;;
71166;SDS011;58864;45.928;20.078;2022-08-19T02:10:46;8.73;;;3.30;;
71166;SDS011;58864;45.928;20.078;2022-08-19T02:13:12;7.78;;;3.88;;
71166;SDS011;58864;45.928;20.078;2022-08-19T02:15:37;8.77;;;4.60;;
71166;SDS011;58864;45.928;20.078;2022-08-19T02:18:02;11.23;;;4.60;;
71166;SDS011;58864;45.928;20.078;2022-08-19T02:20:26;7.90;;;4.03;;
71166;SDS011;58864;45.928;20.078;2022-08-19T02:22:51;8.70;;;3.93;;
71166;SDS011;58864;45.928;20.078;2022-08-19T02:25:16;9.10;;;3.70;;
71166;SDS011;58864;45.928;20.078;2022-08-19T02:27:41;9.87;;;4.37;;
71166;SDS011;58864;45.928;20.078;2022-08-19T02:30:07;14.20;;;3.73;;
71166;SDS011;58864;45.928;20.078;2022-08-19T02:32:34;8.38;;;3.92;;
71166;SDS011;58864;45.928;20.078;2022-08-19T02:34:58;7.43;;;3.80;;
71166;SDS011;58864;45.928;20.078;2022-08-19T02:37:23;8.55;;;4.18;;
71166;SDS011;58864;45.928;20.078;2022-08-19T02:40:06;10.50;;;4.15;;
71166;SDS011;58864;45.928;20.078;2022-08-19T02:42:30;9.10;;;3.80;;
71166;SDS011;58864;45.928;20.078;2022-08-19T02:44:56;11.10;;;3.88;;
71166;SDS011;58864;45.928;20.078;2022-08-19T02:47:20;7.77;;;3.80;;
71166;SDS011;58864;45.928;20.078;2022-08-19T02:49:45;11.00;;;3.90;;
71166;SDS011;58864;45.928;20.078;2022-08-19T02:52:10;9.45;;;3.83;;
71166;SDS011;58864;45.928;20.078;2022-08-19T02:54:35;7.40;;;3.73;;
71166;SDS011;58864;45.928;20.078;2022-08-19T02:57:00;7.45;;;3.50;;
71166;SDS011;58864;45.928;20.078;2022-08-19T02:59:24;11.33;;;3.80;;
71166;SDS011;58864;45.928;20.078;2022-08-19T03:01:49;8.88;;;3.67;;
71166;SDS011;58864;45.928;20.078;2022-08-19T03:04:14;7.43;;;3.58;;
71166;SDS011;58864;45.928;20.078;2022-08-19T03:06:40;7.77;;;3.83;;
71166;SDS011;58864;45.928;20.078;2022-08-19T03:09:06;9.23;;;3.92;;
71166;SDS011;58864;45.928;20.078;2022-08-19T03:11:31;7.65;;;3.75;;
71166;SDS011;58864;45.928;20.078;2022-08-19T03:13:57;8.83;;;3.90;;
71166;SDS011;58864;45.928;20.078;2022-08-19T03:16:25;7.63;;;3.90;;
71166;SDS011;58864;45.928;20.078;2022-08-19T03:18:52;11.73;;;3.90;;
71166;SDS011;58864;45.928;20.078;2022-08-19T03:21:19;8.55;;;3.67;;
71166;SDS011;58864;45.928;20.078;2022-08-19T03:23:45;8.05;;;4.00;;
71166;SDS011;58864;45.928;20.078;2022-08-19T03:26:09;10.57;;;4.03;;
71166;SDS011;58864;45.928;20.078;2022-08-19T03:28:34;7.07;;;3.97;;
71166;SDS011;58864;45.928;20.078;2022-08-19T03:31:00;9.20;;;4.35;;
71166;SDS011;58864;45.928;20.078;2022-08-19T03:33:26;12.30;;;4.40;;
71166;SDS011;58864;45.928;20.078;2022-08-19T03:38:25;11.00;;;4.18;;
71166;SDS011;58864;45.928;20.078;2022-08-19T03:40:49;7.87;;;3.97;;
71166;SDS011;58864;45.928;20.078;2022-08-19T03:43:14;8.43;;;3.97;;
71166;SDS011;58864;45.928;20.078;2022-08-19T03:45:41;10.53;;;3.90;;
71166;SDS011;58864;45.928;20.078;2022-08-19T03:48:06;8.05;;;4.20;;
71166;SDS011;58864;45.928;20.078;2022-08-19T03:50:32;12.95;;;4.40;;
71166;SDS011;58864;45.928;20.078;2022-08-19T03:52:56;8.53;;;3.90;;
71166;SDS011;58864;45.928;20.078;2022-08-19T03:55:20;9.10;;;4.40;;
71166;SDS011;58864;45.928;20.078;2022-08-19T03:57:45;10.47;;;4.03;;
71166;SDS011;58864;45.928;20.078;2022-08-19T04:00:12;10.80;;;4.78;;
71166;SDS011;58864;45.928;20.078;2022-08-19T04:02:37;12.13;;;4.18;;
71166;SDS011;58864;45.928;20.078;2022-08-19T04:05:01;7.83;;;4.00;;
71166;SDS011;58864;45.928;20.078;2022-08-19T04:07:26;7.78;;;4.25;;
71166;SDS011;58864;45.928;20.078;2022-08-19T04:09:50;8.17;;;4.27;;
71166;SDS011;58864;45.928;20.078;2022-08-19T04:12:15;9.07;;;4.40;;
71166;SDS011;58864;45.928;20.078;2022-08-19T04:14:40;12.67;;;4.30;;
71166;SDS011;58864;45.928;20.078;2022-08-19T04:17:05;8.65;;;4.20;;
71166;SDS011;58864;45.928;20.078;2022-08-19T04:19:30;8.87;;;4.40;;
71166;SDS011;58864;45.928;20.078;2022-08-19T04:21:54;11.63;;;4.00;;
71166;SDS011;58864;45.928;20.078;2022-08-19T04:24:19;9.43;;;4.57;;
71166;SDS011;58864;45.928;20.078;2022-08-19T04:26:45;10.48;;;4.15;;
71166;SDS011;58864;45.928;20.078;2022-08-19T04:29:11;13.75;;;4.68;;
71166;SDS011;58864;45.928;20.078;2022-08-19T04:31:38;13.07;;;4.57;;
71166;SDS011;58864;45.928;20.078;2022-08-19T04:34:05;10.60;;;4.63;;
71166;SDS011;58864;45.928;20.078;2022-08-19T04:36:35;13.10;;;4.93;;
71166;SDS011;58864;45.928;20.078;2022-08-19T04:39:01;10.45;;;5.20;;
71166;SDS011;58864;45.928;20.078;2022-08-19T04:41:29;10.48;;;5.80;;
71166;SDS011;58864;45.928;20.078;2022-08-19T04:44:12;8.93;;;5.07;;
71166;SDS011;58864;45.928;20.078;2022-08-19T04:46:38;14.10;;;5.80;;
71166;SDS011;58864;45.928;20.078;2022-08-19T04:49:03;10.27;;;5.90;;
71166;SDS011;58864;45.928;20.078;2022-08-19T04:51:29;10.52;;;6.05;;
71166;SDS011;58864;45.928;20.078;2022-08-19T04:53:55;15.10;;;5.93;;
71166;SDS011;58864;45.928;20.078;2022-08-19T04:56:19;10.57;;;6.10;;
71166;SDS011;58864;45.928;20.078;2022-08-19T04:58:50;11.05;;;6.40;;
71166;SDS011;58864;45.928;20.078;2022-08-19T05:01:21;13.65;;;6.38;;
71166;SDS011;58864;45.928;20.078;2022-08-19T05:03:51;11.20;;;6.15;;
71166;SDS011;58864;45.928;20.078;2022-08-19T05:06:17;13.20;;;6.50;;
71166;SDS011;58864;45.928;20.078;2022-08-19T05:08:44;14.48;;;6.88;;
71166;SDS011;58864;45.928;20.078;2022-08-19T05:11:14;10.68;;;6.15;;
71166;SDS011;58864;45.928;20.078;2022-08-19T05:13:46;15.90;;;6.43;;
71166;SDS011;58864;45.928;20.078;2022-08-19T05:16:12;12.75;;;6.30;;
71166;SDS011;58864;45.928;20.078;2022-08-19T05:18:37;11.10;;;6.00;;
71166;SDS011;58864;45.928;20.078;2022-08-19T05:21:20;13.20;;;6.35;;
71166;SDS011;58864;45.928;20.078;2022-08-19T05:24:04;12.27;;;6.68;;
71166;SDS011;58864;45.928;20.078;2022-08-19T05:26:32;14.13;;;7.25;;
71166;SDS011;58864;45.928;20.078;2022-08-19T05:28:57;13.37;;;8.03;;
71166;SDS011;58864;45.928;20.078;2022-08-19T05:31:21;17.10;;;8.57;;
71166;SDS011;58864;45.928;20.078;2022-08-19T05:33:46;14.98;;;7.97;;
71166;SDS011;58864;45.928;20.078;2022-08-19T05:36:10;15.10;;;8.47;;
71166;SDS011;58864;45.928;20.078;2022-08-19T05:38:35;17.48;;;8.65;;
71166;SDS011;58864;45.928;20.078;2022-08-19T05:41:00;15.40;;;8.43;;
71166;SDS011;58864;45.928;20.078;2022-08-19T05:43:24;15.68;;;8.73;;
71166;SDS011;58864;45.928;20.078;2022-08-19T05:45:49;14.37;;;8.37;;
71166;SDS011;58864;45.928;20.078;2022-08-19T05:48:14;12.73;;;8.13;;
71166;SDS011;58864;45.928;20.078;2022-08-19T05:50:40;13.97;;;8.40;;
71166;SDS011;58864;45.928;20.078;2022-08-19T05:53:05;14.85;;;9.32;;
71166;SDS011;58864;45.928;20.078;2022-08-19T05:55:30;14.43;;;8.67;;
71166;SDS011;58864;45.928;20.078;2022-08-19T05:57:54;14.02;;;8.52;;
71166;SDS011;58864;45.928;20.078;2022-08-19T06:00:19;13.53;;;9.10;;
71166;SDS011;58864;45.928;20.078;2022-08-19T06:02:43;14.98;;;9.00;;
71166;SDS011;58864;45.928;20.078;2022-08-19T06:05:08;15.37;;;9.10;;
71166;SDS011;58864;45.928;20.078;2022-08-19T06:07:33;16.50;;;9.10;;
71166;SDS011;58864;45.928;20.078;2022-08-19T06:09:57;12.07;;;8.30;;
71166;SDS011;58864;45.928;20.078;2022-08-19T06:12:22;16.17;;;9.10;;
71166;SDS011;58864;45.928;20.078;2022-08-19T06:14:52;14.67;;;9.33;;
71166;SDS011;58864;45.928;20.078;2022-08-19T06:17:18;13.52;;;8.68;;
71166;SDS011;58864;45.928;20.078;2022-08-19T06:19:43;15.83;;;9.03;;
71166;SDS011;58864;45.928;20.078;2022-08-19T06:22:07;18.58;;;8.80;;
71166;SDS011;58864;45.928;20.078;2022-08-19T06:24:32;14.30;;;9.20;;
71166;SDS011;58864;45.928;20.078;2022-08-19T06:26:57;16.87;;;8.90;;
71166;SDS011;58864;45.928;20.078;2022-08-19T06:29:23;14.27;;;9.20;;
71166;SDS011;58864;45.928;20.078;2022-08-19T06:31:49;13.40;;;8.10;;
71166;SDS011;58864;45.928;20.078;2022-08-19T06:34:15;17.15;;;8.05;;
71166;SDS011;58864;45.928;20.078;2022-08-19T06:36:42;12.40;;;8.52;;
71166;SDS011;58864;45.928;20.078;2022-08-19T06:39:13;18.33;;;8.35;;
71166;SDS011;58864;45.928;20.078;2022-08-19T06:41:47;11.63;;;7.97;;
71166;SDS011;58864;45.928;20.078;2022-08-19T06:44:13;12.63;;;8.00;;
71166;SDS011;58864;45.928;20.078;2022-08-19T06:46:38;13.13;;;8.05;;
71166;SDS011;58864;45.928;20.078;2022-08-19T06:49:04;12.95;;;8.10;;
71166;SDS011;58864;45.928;20.078;2022-08-19T06:51:29;12.37;;;8.63;;
71166;SDS011;58864;45.928;20.078;2022-08-19T06:53:55;15.40;;;7.72;;
71166;SDS011;58864;45.928;20.078;2022-08-19T06:56:21;12.63;;;7.77;;
71166;SDS011;58864;45.928;20.078;2022-08-19T06:58:54;16.48;;;8.25;;
71166;SDS011;58864;45.928;20.078;2022-08-19T07:01:19;15.43;;;8.70;;
71166;SDS011;58864;45.928;20.078;2022-08-19T07:03:44;12.88;;;7.95;;
71166;SDS011;58864;45.928;20.078;2022-08-19T07:06:11;15.50;;;7.88;;
71166;SDS011;58864;45.928;20.078;2022-08-19T07:08:39;12.55;;;7.55;;
71166;SDS011;58864;45.928;20.078;2022-08-19T07:11:07;10.85;;;7.35;;
71166;SDS011;58864;45.928;20.078;2022-08-19T07:13:34;14.00;;;7.57;;
71166;SDS011;58864;45.928;20.078;2022-08-19T07:16:08;12.02;;;6.68;;
71166;SDS011;58864;45.928;20.078;2022-08-19T07:18:37;11.07;;;6.90;;
71166;SDS011;58864;45.928;20.078;2022-08-19T07:21:05;10.48;;;6.50;;
71166;SDS011;58864;45.928;20.078;2022-08-19T07:23:31;10.75;;;6.47;;
71166;SDS011;58864;45.928;20.078;2022-08-19T07:25:56;13.57;;;6.90;;
71166;SDS011;58864;45.928;20.078;2022-08-19T07:28:21;9.88;;;5.53;;
71166;SDS011;58864;45.928;20.078;2022-08-19T07:30:46;10.13;;;6.07;;
71166;SDS011;58864;45.928;20.078;2022-08-19T07:33:10;9.53;;;5.73;;
71166;SDS011;58864;45.928;20.078;2022-08-19T07:35:35;8.45;;;5.43;;
71166;SDS011;58864;45.928;20.078;2022-08-19T07:37:59;7.80;;;5.33;;
71166;SDS011;58864;45.928;20.078;2022-08-19T07:40:26;9.68;;;5.60;;
71166;SDS011;58864;45.928;20.078;2022-08-19T07:42:51;9.37;;;5.17;;
71166;SDS011;58864;45.928;20.078;2022-08-19T07:45:15;9.47;;;5.30;;
71166;SDS011;58864;45.928;20.078;2022-08-19T07:47:40;8.65;;;5.40;;
71166;SDS011;58864;45.928;20.078;2022-08-19T07:50:07;10.47;;;5.50;;
71166;SDS011;58864;45.928;20.078;2022-08-19T07:52:36;11.30;;;5.18;;
71166;SDS011;58864;45.928;20.078;2022-08-19T07:55:03;8.80;;;5.22;;
71166;SDS011;58864;45.928;20.078;2022-08-19T07:57:28;8.27;;;4.68;;
71166;SDS011;58864;45.928;20.078;2022-08-19T07:59:52;9.03;;;5.40;;
71166;SDS011;58864;45.928;20.078;2022-08-19T08:02:17;10.37;;;6.50;;
71166;SDS011;58864;45.928;20.078;2022-08-19T08:04:41;11.50;;;5.17;;
71166;SDS011;58864;45.928;20.078;2022-08-19T08:07:24;7.90;;;4.68;;
71166;SDS011;58864;45.928;20.078;2022-08-19T08:10:07;8.88;;;4.90;;
71166;SDS011;58864;45.928;20.078;2022-08-19T08:12:36;9.43;;;5.40;;
71166;SDS011;58864;45.928;20.078;2022-08-19T08:15:06;8.68;;;4.40;;
71166;SDS011;58864;45.928;20.078;2022-08-19T08:17:33;9.63;;;5.05;;
71166;SDS011;58864;45.928;20.078;2022-08-19T08:19:58;8.70;;;4.47;;
71166;SDS011;58864;45.928;20.078;2022-08-19T08:22:24;6.68;;;4.30;;
71166;SDS011;58864;45.928;20.078;2022-08-19T08:25:08;7.85;;;4.60;;
71166;SDS011;58864;45.928;20.078;2022-08-19T08:27:35;7.65;;;4.35;;
71166;SDS011;58864;45.928;20.078;2022-08-19T08:30:03;8.00;;;5.10;;
71166;SDS011;58864;45.928;20.078;2022-08-19T08:32:33;7.05;;;4.70;;
71166;SDS011;58864;45.928;20.078;2022-08-19T08:34:57;7.63;;;4.50;;
71166;SDS011;58864;45.928;20.078;2022-08-19T08:37:23;11.33;;;4.87;;
71166;SDS011;58864;45.928;20.078;2022-08-19T08:39:47;7.95;;;4.88;;
71166;SDS011;58864;45.928;20.078;2022-08-19T08:44:59;9.40;;;5.10;;
71166;SDS011;58864;45.928;20.078;2022-08-19T08:47:30;8.00;;;4.97;;
71166;SDS011;58864;45.928;20.078;2022-08-19T08:50:00;8.17;;;4.60;;
71166;SDS011;58864;45.928;20.078;2022-08-19T08:52:29;11.68;;;4.82;;
71166;SDS011;58864;45.928;20.078;2022-08-19T08:55:00;7.88;;;4.53;;
71166;SDS011;58864;45.928;20.078;2022-08-19T08:57:35;12.43;;;5.10;;
71166;SDS011;58864;45.928;20.078;2022-08-19T09:00:05;8.27;;;4.63;;
71166;SDS011;58864;45.928;20.078;2022-08-19T09:02:31;7.90;;;4.70;;
71166;SDS011;58864;45.928;20.078;2022-08-19T09:04:56;6.90;;;4.40;;
71166;SDS011;58864;45.928;20.078;2022-08-19T09:12:55;11.15;;;4.68;;
71166;SDS011;58864;45.928;20.078;2022-08-19T09:15:25;7.83;;;4.60;;
71166;SDS011;58864;45.928;20.078;2022-08-19T09:17:53;8.77;;;4.93;;
71166;SDS011;58864;45.928;20.078;2022-08-19T09:20:20;8.93;;;5.00;;
71166;SDS011;58864;45.928;20.078;2022-08-19T09:22:46;8.38;;;4.63;;
71166;SDS011;58864;45.928;20.078;2022-08-19T09:25:14;11.02;;;4.50;;
71166;SDS011;58864;45.928;20.078;2022-08-19T09:27:41;8.43;;;4.40;;
71166;SDS011;58864;45.928;20.078;2022-08-19T09:30:07;7.78;;;4.53;;
71166;SDS011;58864;45.928;20.078;2022-08-19T09:32:32;6.32;;;4.60;;
71166;SDS011;58864;45.928;20.078;2022-08-19T09:34:57;8.90;;;4.57;;
71166;SDS011;58864;45.928;20.078;2022-08-19T09:37:22;9.95;;;4.55;;
71166;SDS011;58864;45.928;20.078;2022-08-19T09:39:47;7.75;;;4.40;;
71166;SDS011;58864;45.928;20.078;2022-08-19T09:42:11;8.93;;;4.43;;
71166;SDS011;58864;45.928;20.078;2022-08-19T09:44:36;8.20;;;4.85;;
71166;SDS011;58864;45.928;20.078;2022-08-19T09:47:00;8.47;;;4.30;;
71166;SDS011;58864;45.928;20.078;2022-08-19T09:49:25;7.43;;;4.60;;
71166;SDS011;58864;45.928;20.078;2022-08-19T09:51:50;7.40;;;4.43;;
71166;SDS011;58864;45.928;20.078;2022-08-19T09:54:15;7.93;;;4.25;;
71166;SDS011;58864;45.928;20.078;2022-08-19T09:56:40;9.37;;;4.90;;
71166;SDS011;58864;45.928;20.078;2022-08-19T09:59:04;10.20;;;4.10;;
71166;SDS011;58864;45.928;20.078;2022-08-19T10:01:29;7.90;;;4.20;;
71166;SDS011;58864;45.928;20.078;2022-08-19T10:03:56;8.30;;;4.27;;
71166;SDS011;58864;45.928;20.078;2022-08-19T10:06:22;8.52;;;3.70;;
71166;SDS011;58864;45.928;20.078;2022-08-19T10:08:47;6.38;;;3.38;;
71166;SDS011;58864;45.928;20.078;2022-08-19T10:11:12;7.18;;;3.72;;
71166;SDS011;58864;45.928;20.078;2022-08-19T10:13:39;6.50;;;3.00;;
71166;SDS011;58864;45.928;20.078;2022-08-19T10:16:06;7.50;;;3.05;;
71166;SDS011;58864;45.928;20.078;2022-08-19T10:18:33;8.13;;;3.63;;
71166;SDS011;58864;45.928;20.078;2022-08-19T10:21:08;8.27;;;3.20;;
71166;SDS011;58864;45.928;20.078;2022-08-19T10:23:36;6.93;;;3.33;;
71166;SDS011;58864;45.928;20.078;2022-08-19T10:26:02;6.63;;;3.60;;
71166;SDS011;58864;45.928;20.078;2022-08-19T10:28:30;10.55;;;3.33;;
71166;SDS011;58864;45.928;20.078;2022-08-19T10:30:54;7.63;;;3.47;;
71166;SDS011;58864;45.928;20.078;2022-08-19T10:33:19;6.30;;;3.15;;
71166;SDS011;58864;45.928;20.078;2022-08-19T10:35:43;7.40;;;3.10;;
71166;SDS011;58864;45.928;20.078;2022-08-19T10:38:08;10.43;;;3.80;;
71166;SDS011;58864;45.928;20.078;2022-08-19T10:40:33;6.37;;;3.00;;
71166;SDS011;58864;45.928;20.078;2022-08-19T10:42:57;9.13;;;3.10;;
71166;SDS011;58864;45.928;20.078;2022-08-19T10:45:22;5.82;;;3.03;;
71166;SDS011;58864;45.928;20.078;2022-08-19T10:47:50;5.30;;;3.17;;
71166;SDS011;58864;45.928;20.078;2022-08-19T10:50:14;8.37;;;3.40;;
71166;SDS011;58864;45.928;20.078;2022-08-19T10:52:57;8.15;;;3.25;;
71166;SDS011;58864;45.928;20.078;2022-08-19T10:55:22;8.07;;;3.30;;
71166;SDS011;58864;45.928;20.078;2022-08-19T10:58:11;6.80;;;3.67;;
71166;SDS011;58864;45.928;20.078;2022-08-19T11:00:37;5.50;;;3.30;;
71166;SDS011;58864;45.928;20.078;2022-08-19T11:03:01;7.25;;;3.30;;
71166;SDS011;58864;45.928;20.078;2022-08-19T11:05:25;8.30;;;3.90;;
71166;SDS011;58864;45.928;20.078;2022-08-19T11:07:50;7.57;;;3.50;;
71166;SDS011;58864;45.928;20.078;2022-08-19T11:10:15;8.77;;;3.75;;
71166;SDS011;58864;45.928;20.078;2022-08-19T11:12:42;6.40;;;3.70;;
71166;SDS011;58864;45.928;20.078;2022-08-19T11:15:07;9.40;;;4.20;;
71166;SDS011;58864;45.928;20.078;2022-08-19T11:17:34;6.15;;;3.50;;
71166;SDS011;58864;45.928;20.078;2022-08-19T11:19:59;6.53;;;3.50;;
71166;SDS011;58864;45.928;20.078;2022-08-19T11:22:27;8.40;;;3.40;;
71166;SDS011;58864;45.928;20.078;2022-08-19T11:24:52;8.00;;;3.83;;
71166;SDS011;58864;45.928;20.078;2022-08-19T11:27:17;7.20;;;3.53;;
71166;SDS011;58864;45.928;20.078;2022-08-19T11:29:42;8.63;;;3.70;;
71166;SDS011;58864;45.928;20.078;2022-08-19T11:32:08;6.50;;;3.83;;
71166;SDS011;58864;45.928;20.078;2022-08-19T11:34:33;7.53;;;3.90;;
71166;SDS011;58864;45.928;20.078;2022-08-19T11:36:59;7.38;;;3.83;;
71166;SDS011;58864;45.928;20.078;2022-08-19T11:39:24;9.17;;;3.73;;
71166;SDS011;58864;45.928;20.078;2022-08-19T11:41:49;7.00;;;4.00;;
71166;SDS011;58864;45.928;20.078;2022-08-19T11:44:14;8.65;;;4.05;;
71166;SDS011;58864;45.928;20.078;2022-08-19T11:46:41;6.70;;;3.50;;
71166;SDS011;58864;45.928;20.078;2022-08-19T11:49:11;6.85;;;3.83;;
71166;SDS011;58864;45.928;20.078;2022-08-19T11:51:36;9.10;;;4.50;;
71166;SDS011;58864;45.928;20.078;2022-08-19T11:54:00;10.03;;;4.23;;
71166;SDS011;58864;45.928;20.078;2022-08-19T11:56:25;7.97;;;3.50;;
71166;SDS011;58864;45.928;20.078;2022-08-19T11:58:51;8.98;;;3.78;;
71166;SDS011;58864;45.928;20.078;2022-08-19T12:01:17;6.68;;;3.88;;
71166;SDS011;58864;45.928;20.078;2022-08-19T12:03:47;6.87;;;4.33;;
71166;SDS011;58864;45.928;20.078;2022-08-19T12:06:14;6.35;;;3.60;;
71166;SDS011;58864;45.928;20.078;2022-08-19T12:08:40;7.60;;;4.13;;
71166;SDS011;58864;45.928;20.078;2022-08-19T12:11:06;7.65;;;4.05;;
71166;SDS011;58864;45.928;20.078;2022-08-19T12:13:31;7.85;;;4.10;;
71166;SDS011;58864;45.928;20.078;2022-08-19T12:15:56;10.13;;;3.60;;
71166;SDS011;58864;45.928;20.078;2022-08-19T12:18:25;7.65;;;3.70;;
71166;SDS011;58864;45.928;20.078;2022-08-19T12:21:02;6.73;;;3.77;;
71166;SDS011;58864;45.928;20.078;2022-08-19T12:24:06;6.63;;;3.90;;
71166;SDS011;58864;45.928;20.078;2022-08-19T12:26:34;10.93;;;4.28;;
71166;SDS011;58864;45.928;20.078;2022-08-19T12:29:18;7.38;;;3.78;;
71166;SDS011;58864;45.928;20.078;2022-08-19T12:31:43;7.60;;;3.88;;
71166;SDS011;58864;45.928;20.078;2022-08-19T12:34:07;6.40;;;3.50;;
71166;SDS011;58864;45.928;20.078;2022-08-19T12:36:32;7.00;;;3.90;;
71166;SDS011;58864;45.928;20.078;2022-08-19T12:38:57;12.25;;;4.85;;
71166;SDS011;58864;45.928;20.078;2022-08-19T12:41:22;6.95;;;4.30;;
71166;SDS011;58864;45.928;20.078;2022-08-19T12:43:47;8.20;;;4.10;;
71166;SDS011;58864;45.928;20.078;2022-08-19T12:46:13;7.28;;;3.97;;
71166;SDS011;58864;45.928;20.078;2022-08-19T12:48:38;11.87;;;4.60;;
71166;SDS011;58864;45.928;20.078;2022-08-19T12:51:06;9.35;;;3.83;;
71166;SDS011;58864;45.928;20.078;2022-08-19T12:53:32;11.52;;;4.00;;
71166;SDS011;58864;45.928;20.078;2022-08-19T12:55:57;10.20;;;3.90;;
71166;SDS011;58864;45.928;20.078;2022-08-19T12:58:22;9.48;;;4.28;;
71166;SDS011;58864;45.928;20.078;2022-08-19T13:00:47;10.20;;;3.97;;
71166;SDS011;58864;45.928;20.078;2022-08-19T13:03:12;8.05;;;3.85;;
71166;SDS011;58864;45.928;20.078;2022-08-19T13:05:40;8.73;;;4.10;;
71166;SDS011;58864;45.928;20.078;2022-08-19T13:08:05;7.32;;;3.88;;
71166;SDS011;58864;45.928;20.078;2022-08-19T13:10:31;6.90;;;3.80;;
71166;SDS011;58864;45.928;20.078;2022-08-19T13:12:59;6.60;;;3.53;;
71166;SDS011;58864;45.928;20.078;2022-08-19T13:15:23;7.13;;;4.17;;
71166;SDS011;58864;45.928;20.078;2022-08-19T13:17:48;7.28;;;3.92;;
71166;SDS011;58864;45.928;20.078;2022-08-19T13:20:15;9.77;;;3.97;;
71166;SDS011;58864;45.928;20.078;2022-08-19T13:22:40;9.88;;;3.80;;
71166;SDS011;58864;45.928;20.078;2022-08-19T13:25:08;11.80;;;4.30;;
71166;SDS011;58864;45.928;20.078;2022-08-19T13:27:33;8.27;;;4.20;;
71166;SDS011;58864;45.928;20.078;2022-08-19T13:29:58;8.43;;;4.00;;
71166;SDS011;58864;45.928;20.078;2022-08-19T13:32:41;9.80;;;4.32;;
71166;SDS011;58864;45.928;20.078;2022-08-19T13:35:24;6.97;;;3.83;;
71166;SDS011;58864;45.928;20.078;2022-08-19T13:37:49;8.80;;;3.70;;
71166;SDS011;58864;45.928;20.078;2022-08-19T13:47:08;9.00;;;4.30;;
71166;SDS011;58864;45.928;20.078;2022-08-19T13:49:36;8.15;;;4.38;;
71166;SDS011;58864;45.928;20.078;2022-08-19T13:52:01;7.23;;;3.87;;
71166;SDS011;58864;45.928;20.078;2022-08-19T13:54:25;10.88;;;4.38;;
71166;SDS011;58864;45.928;20.078;2022-08-19T13:56:50;9.88;;;3.80;;
71166;SDS011;58864;45.928;20.078;2022-08-19T13:59:16;8.23;;;4.07;;
71166;SDS011;58864;45.928;20.078;2022-08-19T14:01:41;7.45;;;4.00;;
71166;SDS011;58864;45.928;20.078;2022-08-19T14:04:06;8.17;;;3.67;;
71166;SDS011;58864;45.928;20.078;2022-08-19T14:06:30;7.93;;;3.75;;
71166;SDS011;58864;45.928;20.078;2022-08-19T14:08:55;9.43;;;4.40;;
71166;SDS011;58864;45.928;20.078;2022-08-19T14:11:19;8.82;;;3.92;;
71166;SDS011;58864;45.928;20.078;2022-08-19T14:13:44;10.43;;;4.03;;
71166;SDS011;58864;45.928;20.078;2022-08-19T14:16:09;7.37;;;3.90;;
71166;SDS011;58864;45.928;20.078;2022-08-19T14:18:35;10.57;;;3.80;;
71166;SDS011;58864;45.928;20.078;2022-08-19T14:20:59;6.65;;;4.07;;
71166;SDS011;58864;45.928;20.078;2022-08-19T14:23:31;8.20;;;4.45;;
71166;SDS011;58864;45.928;20.078;2022-08-19T14:26:03;10.23;;;4.20;;
71166;SDS011;58864;45.928;20.078;2022-08-19T14:28:35;10.32;;;4.10;;
71166;SDS011;58864;45.928;20.078;2022-08-19T14:31:00;8.48;;;3.92;;
71166;SDS011;58864;45.928;20.078;2022-08-19T14:33:24;9.43;;;3.87;;
71166;SDS011;58864;45.928;20.078;2022-08-19T14:35:49;9.27;;;3.77;;
71166;SDS011;58864;45.928;20.078;2022-08-19T14:38:17;8.53;;;3.73;;
71166;SDS011;58864;45.928;20.078;2022-08-19T14:40:42;7.78;;;3.58;;
71166;SDS011;58864;45.928;20.078;2022-08-19T14:43:06;8.53;;;3.83;;
71166;SDS011;58864;45.928;20.078;2022-08-19T14:45:32;8.60;;;4.10;;